sensor_id;sensor_type;location;lat;lon;timestamp;temperature;humidity
29663;DHT22;16578;53.266;7.920;2023-05-23T00:01:35;18.50;74.70
29663;DHT22;16578;53.266;7.920;2023-05-23T00:04:02;18.50;74.70
29663;DHT22;16578;53.266;7.920;2023-05-23T00:06:28;18.60;74.60
29663;DHT22;16578;53.266;7.920;2023-05-23T00:08:53;18.60;74.60
29663;DHT22;16578;53.266;7.920;2023-05-23T00:11:19;18.60;74.40
29663;DHT22;16578;53.266;7.920;2023-05-23T00:13:48;18.60;74.30
29663;DHT22;16578;53.266;7.920;2023-05-23T00:16:15;18.60;74.30
29663;DHT22;16578;53.266;7.920;2023-05-23T00:18:41;18.50;74.20
29663;DHT22;16578;53.266;7.920;2023-05-23T00:21:07;18.60;74.30
29663;DHT22;16578;53.266;7.920;2023-05-23T00:23:34;18.50;74.30
29663;DHT22;16578;53.266;7.920;2023-05-23T00:25:59;18.60;74.30
29663;DHT22;16578;53.266;7.920;2023-05-23T00:28:25;18.60;74.30
29663;DHT22;16578;53.266;7.920;2023-05-23T00:30:51;18.60;74.20
29663;DHT22;16578;53.266;7.920;2023-05-23T00:33:17;18.50;74.10
29663;DHT22;16578;53.266;7.920;2023-05-23T00:35:46;18.50;74.00
29663;DHT22;16578;53.266;7.920;2023-05-23T00:38:12;18.50;74.00
29663;DHT22;16578;53.266;7.920;2023-05-23T00:40:39;18.40;73.90
29663;DHT22;16578;53.266;7.920;2023-05-23T00:43:04;18.40;74.00
29663;DHT22;16578;53.266;7.920;2023-05-23T00:45:30;18.40;74.20
29663;DHT22;16578;53.266;7.920;2023-05-23T00:47:56;18.30;74.40
29663;DHT22;16578;53.266;7.920;2023-05-23T00:50:23;18.30;74.60
29663;DHT22;16578;53.266;7.920;2023-05-23T00:52:50;18.30;74.70
29663;DHT22;16578;53.266;7.920;2023-05-23T00:55:15;18.30;74.80
29663;DHT22;16578;53.266;7.920;2023-05-23T00:57:41;18.30;75.00
29663;DHT22;16578;53.266;7.920;2023-05-23T01:00:10;18.30;75.20
29663;DHT22;16578;53.266;7.920;2023-05-23T01:02:39;18.30;75.30
29663;DHT22;16578;53.266;7.920;2023-05-23T01:05:08;18.30;75.40
29663;DHT22;16578;53.266;7.920;2023-05-23T01:07:35;18.30;75.40
29663;DHT22;16578;53.266;7.920;2023-05-23T01:10:01;18.30;75.40
29663;DHT22;16578;53.266;7.920;2023-05-23T01:12:50;18.30;75.40
29663;DHT22;16578;53.266;7.920;2023-05-23T01:15:19;18.30;75.60
29663;DHT22;16578;53.266;7.920;2023-05-23T01:17:58;18.20;75.40
29663;DHT22;16578;53.266;7.920;2023-05-23T01:20:49;18.20;75.50
29663;DHT22;16578;53.266;7.920;2023-05-23T01:23:23;18.20;75.80
29663;DHT22;16578;53.266;7.920;2023-05-23T01:26:32;18.20;75.70
29663;DHT22;16578;53.266;7.920;2023-05-23T01:29:11;18.20;75.90
29663;DHT22;16578;53.266;7.920;2023-05-23T01:31:45;18.20;75.90
29663;DHT22;16578;53.266;7.920;2023-05-23T01:34:13;18.10;75.80
29663;DHT22;16578;53.266;7.920;2023-05-23T01:36:42;18.10;75.90
29663;DHT22;16578;53.266;7.920;2023-05-23T01:39:08;18.10;75.90
29663;DHT22;16578;53.266;7.920;2023-05-23T01:41:35;18.00;75.90
29663;DHT22;16578;53.266;7.920;2023-05-23T01:44:00;18.00;76.00
29663;DHT22;16578;53.266;7.920;2023-05-23T01:46:27;18.00;76.10
29663;DHT22;16578;53.266;7.920;2023-05-23T01:48:54;18.00;76.20
29663;DHT22;16578;53.266;7.920;2023-05-23T01:51:22;18.00;76.30
29663;DHT22;16578;53.266;7.920;2023-05-23T01:53:51;17.90;76.20
29663;DHT22;16578;53.266;7.920;2023-05-23T01:56:17;17.90;76.20
29663;DHT22;16578;53.266;7.920;2023-05-23T01:58:44;17.90;76.40
29663;DHT22;16578;53.266;7.920;2023-05-23T02:01:10;17.80;76.40
29663;DHT22;16578;53.266;7.920;2023-05-23T02:03:35;17.80;76.50
29663;DHT22;16578;53.266;7.920;2023-05-23T02:06:01;17.80;76.60
29663;DHT22;16578;53.266;7.920;2023-05-23T02:08:26;17.80;76.70
29663;DHT22;16578;53.266;7.920;2023-05-23T02:10:52;17.80;76.90
29663;DHT22;16578;53.266;7.920;2023-05-23T02:13:17;17.80;76.70
29663;DHT22;16578;53.266;7.920;2023-05-23T02:15:43;17.80;76.80
29663;DHT22;16578;53.266;7.920;2023-05-23T02:18:09;17.70;76.80
29663;DHT22;16578;53.266;7.920;2023-05-23T02:20:34;17.80;76.90
29663;DHT22;16578;53.266;7.920;2023-05-23T02:23:00;17.70;77.00
29663;DHT22;16578;53.266;7.920;2023-05-23T02:25:25;17.70;77.00
29663;DHT22;16578;53.266;7.920;2023-05-23T02:27:51;17.70;77.10
29663;DHT22;16578;53.266;7.920;2023-05-23T02:30:16;17.70;77.10
29663;DHT22;16578;53.266;7.920;2023-05-23T02:32:42;17.70;77.10
29663;DHT22;16578;53.266;7.920;2023-05-23T02:35:08;17.70;77.10
29663;DHT22;16578;53.266;7.920;2023-05-23T02:37:34;17.70;77.00
29663;DHT22;16578;53.266;7.920;2023-05-23T02:40:00;17.70;77.00
29663;DHT22;16578;53.266;7.920;2023-05-23T02:42:25;17.60;77.10
29663;DHT22;16578;53.266;7.920;2023-05-23T02:44:51;17.60;77.20
29663;DHT22;16578;53.266;7.920;2023-05-23T02:47:16;17.60;77.20
29663;DHT22;16578;53.266;7.920;2023-05-23T02:49:42;17.60;77.20
29663;DHT22;16578;53.266;7.920;2023-05-23T02:52:07;17.60;77.30
29663;DHT22;16578;53.266;7.920;2023-05-23T02:54:33;17.60;77.30
29663;DHT22;16578;53.266;7.920;2023-05-23T02:56:58;17.50;77.30
29663;DHT22;16578;53.266;7.920;2023-05-23T02:59:25;17.50;77.30
29663;DHT22;16578;53.266;7.920;2023-05-23T03:01:51;17.50;77.40
29663;DHT22;16578;53.266;7.920;2023-05-23T03:04:17;17.50;77.50
29663;DHT22;16578;53.266;7.920;2023-05-23T03:06:42;17.40;77.40
29663;DHT22;16578;53.266;7.920;2023-05-23T03:09:09;17.40;77.60
29663;DHT22;16578;53.266;7.920;2023-05-23T03:11:35;17.40;77.50
29663;DHT22;16578;53.266;7.920;2023-05-23T03:14:01;17.40;77.60
29663;DHT22;16578;53.266;7.920;2023-05-23T03:16:27;17.30;77.50
29663;DHT22;16578;53.266;7.920;2023-05-23T03:18:52;17.30;77.50
29663;DHT22;16578;53.266;7.920;2023-05-23T03:21:18;17.30;77.50
29663;DHT22;16578;53.266;7.920;2023-05-23T03:23:43;17.20;77.60
29663;DHT22;16578;53.266;7.920;2023-05-23T03:26:09;17.20;77.60
29663;DHT22;16578;53.266;7.920;2023-05-23T03:28:34;17.20;77.70
29663;DHT22;16578;53.266;7.920;2023-05-23T03:31:00;17.10;77.80
29663;DHT22;16578;53.266;7.920;2023-05-23T03:33:26;17.10;77.90
29663;DHT22;16578;53.266;7.920;2023-05-23T03:35:51;17.10;77.90
29663;DHT22;16578;53.266;7.920;2023-05-23T03:38:17;17.00;77.80
29663;DHT22;16578;53.266;7.920;2023-05-23T03:40:43;17.00;78.00
29663;DHT22;16578;53.266;7.920;2023-05-23T03:43:08;17.00;78.00
29663;DHT22;16578;53.266;7.920;2023-05-23T03:45:34;17.00;78.20
29663;DHT22;16578;53.266;7.920;2023-05-23T03:47:59;16.90;78.30
29663;DHT22;16578;53.266;7.920;2023-05-23T03:50:26;16.90;78.30
29663;DHT22;16578;53.266;7.920;2023-05-23T03:52:52;16.90;78.30
29663;DHT22;16578;53.266;7.920;2023-05-23T03:55:19;16.90;78.30
29663;DHT22;16578;53.266;7.920;2023-05-23T03:57:47;16.90;78.30
29663;DHT22;16578;53.266;7.920;2023-05-23T04:00:13;16.80;79.00
29663;DHT22;16578;53.266;7.920;2023-05-23T04:02:39;16.70;78.20
29663;DHT22;16578;53.266;7.920;2023-05-23T04:05:05;16.70;78.40
29663;DHT22;16578;53.266;7.920;2023-05-23T04:07:32;16.70;78.50
29663;DHT22;16578;53.266;7.920;2023-05-23T04:09:59;16.60;78.40
29663;DHT22;16578;53.266;7.920;2023-05-23T04:12:25;16.60;78.50
29663;DHT22;16578;53.266;7.920;2023-05-23T04:14:51;16.60;78.70
29663;DHT22;16578;53.266;7.920;2023-05-23T04:17:16;16.50;78.70
29663;DHT22;16578;53.266;7.920;2023-05-23T04:19:43;16.50;78.90
29663;DHT22;16578;53.266;7.920;2023-05-23T04:22:09;16.50;79.00
29663;DHT22;16578;53.266;7.920;2023-05-23T04:24:34;16.40;79.00
29663;DHT22;16578;53.266;7.920;2023-05-23T04:27:01;16.40;79.00
29663;DHT22;16578;53.266;7.920;2023-05-23T04:29:26;16.30;79.00
29663;DHT22;16578;53.266;7.920;2023-05-23T04:31:56;16.30;79.00
29663;DHT22;16578;53.266;7.920;2023-05-23T04:34:21;16.30;79.20
29663;DHT22;16578;53.266;7.920;2023-05-23T04:36:47;16.30;79.40
29663;DHT22;16578;53.266;7.920;2023-05-23T04:39:14;16.20;79.30
29663;DHT22;16578;53.266;7.920;2023-05-23T04:41:40;16.20;79.30
29663;DHT22;16578;53.266;7.920;2023-05-23T04:44:06;16.20;79.30
29663;DHT22;16578;53.266;7.920;2023-05-23T04:46:34;16.20;79.30
29663;DHT22;16578;53.266;7.920;2023-05-23T04:49:01;16.10;79.30
29663;DHT22;16578;53.266;7.920;2023-05-23T04:51:26;16.10;79.30
29663;DHT22;16578;53.266;7.920;2023-05-23T04:53:52;16.00;79.30
29663;DHT22;16578;53.266;7.920;2023-05-23T04:56:17;16.00;79.40
29663;DHT22;16578;53.266;7.920;2023-05-23T04:58:45;16.00;79.50
29663;DHT22;16578;53.266;7.920;2023-05-23T05:01:11;15.90;79.60
29663;DHT22;16578;53.266;7.920;2023-05-23T05:03:38;15.90;79.70
29663;DHT22;16578;53.266;7.920;2023-05-23T05:06:04;15.90;79.60
29663;DHT22;16578;53.266;7.920;2023-05-23T05:08:30;15.90;79.70
29663;DHT22;16578;53.266;7.920;2023-05-23T05:10:56;15.80;79.50
29663;DHT22;16578;53.266;7.920;2023-05-23T05:13:21;15.80;79.50
29663;DHT22;16578;53.266;7.920;2023-05-23T05:15:47;15.80;79.50
29663;DHT22;16578;53.266;7.920;2023-05-23T05:18:12;15.80;79.60
29663;DHT22;16578;53.266;7.920;2023-05-23T05:20:38;15.70;79.50
29663;DHT22;16578;53.266;7.920;2023-05-23T05:23:03;15.70;79.60
29663;DHT22;16578;53.266;7.920;2023-05-23T05:25:29;15.70;79.60
29663;DHT22;16578;53.266;7.920;2023-05-23T05:28:00;15.70;79.70
29663;DHT22;16578;53.266;7.920;2023-05-23T05:30:29;15.70;79.80
29663;DHT22;16578;53.266;7.920;2023-05-23T05:32:55;15.70;79.90
29663;DHT22;16578;53.266;7.920;2023-05-23T05:35:22;15.70;79.80
29663;DHT22;16578;53.266;7.920;2023-05-23T05:37:47;15.70;79.90
29663;DHT22;16578;53.266;7.920;2023-05-23T05:40:13;15.70;79.80
29663;DHT22;16578;53.266;7.920;2023-05-23T05:42:38;15.60;79.90
29663;DHT22;16578;53.266;7.920;2023-05-23T05:45:05;15.60;79.90
29663;DHT22;16578;53.266;7.920;2023-05-23T05:47:30;15.60;79.80
29663;DHT22;16578;53.266;7.920;2023-05-23T05:49:56;15.60;79.90
29663;DHT22;16578;53.266;7.920;2023-05-23T05:52:22;15.60;80.00
29663;DHT22;16578;53.266;7.920;2023-05-23T05:54:47;15.60;80.10
29663;DHT22;16578;53.266;7.920;2023-05-23T05:57:13;15.70;80.00
29663;DHT22;16578;53.266;7.920;2023-05-23T05:59:38;15.60;79.90
29663;DHT22;16578;53.266;7.920;2023-05-23T06:02:04;15.60;79.80
29663;DHT22;16578;53.266;7.920;2023-05-23T06:04:30;15.60;79.70
29663;DHT22;16578;53.266;7.920;2023-05-23T06:06:55;15.60;79.80
29663;DHT22;16578;53.266;7.920;2023-05-23T06:09:21;15.60;79.70
29663;DHT22;16578;53.266;7.920;2023-05-23T06:11:46;15.60;79.70
29663;DHT22;16578;53.266;7.920;2023-05-23T06:14:12;15.50;80.40
29663;DHT22;16578;53.266;7.920;2023-05-23T06:16:37;15.50;79.60
29663;DHT22;16578;53.266;7.920;2023-05-23T06:19:03;15.40;79.60
29663;DHT22;16578;53.266;7.920;2023-05-23T06:21:28;15.40;79.80
29663;DHT22;16578;53.266;7.920;2023-05-23T06:23:54;15.40;79.90
29663;DHT22;16578;53.266;7.920;2023-05-23T06:26:19;15.40;79.90
29663;DHT22;16578;53.266;7.920;2023-05-23T06:28:45;15.40;80.80
29663;DHT22;16578;53.266;7.920;2023-05-23T06:31:10;15.30;80.00
29663;DHT22;16578;53.266;7.920;2023-05-23T06:33:36;15.30;80.00
29663;DHT22;16578;53.266;7.920;2023-05-23T06:36:02;15.30;80.20
29663;DHT22;16578;53.266;7.920;2023-05-23T06:38:30;15.30;80.20
29663;DHT22;16578;53.266;7.920;2023-05-23T06:40:58;15.20;80.00
29663;DHT22;16578;53.266;7.920;2023-05-23T06:43:23;15.20;79.80
29663;DHT22;16578;53.266;7.920;2023-05-23T06:45:49;15.20;79.80
29663;DHT22;16578;53.266;7.920;2023-05-23T06:48:14;15.10;79.70
29663;DHT22;16578;53.266;7.920;2023-05-23T06:50:40;15.10;79.70
29663;DHT22;16578;53.266;7.920;2023-05-23T06:53:06;15.10;79.90
29663;DHT22;16578;53.266;7.920;2023-05-23T06:55:32;15.10;79.80
29663;DHT22;16578;53.266;7.920;2023-05-23T06:58:00;15.00;80.10
29663;DHT22;16578;53.266;7.920;2023-05-23T07:00:31;15.00;80.10
29663;DHT22;16578;53.266;7.920;2023-05-23T07:02:56;15.00;80.10
29663;DHT22;16578;53.266;7.920;2023-05-23T07:05:26;15.00;80.20
29663;DHT22;16578;53.266;7.920;2023-05-23T07:07:52;15.00;80.30
29663;DHT22;16578;53.266;7.920;2023-05-23T07:10:18;15.00;80.30
29663;DHT22;16578;53.266;7.920;2023-05-23T07:12:44;15.00;80.30
29663;DHT22;16578;53.266;7.920;2023-05-23T07:15:10;15.00;80.20
29663;DHT22;16578;53.266;7.920;2023-05-23T07:17:36;15.00;80.00
29663;DHT22;16578;53.266;7.920;2023-05-23T07:20:02;15.00;80.00
29663;DHT22;16578;53.266;7.920;2023-05-23T07:22:29;15.00;80.00
29663;DHT22;16578;53.266;7.920;2023-05-23T07:24:55;15.00;80.00
29663;DHT22;16578;53.266;7.920;2023-05-23T07:27:21;15.00;79.90
29663;DHT22;16578;53.266;7.920;2023-05-23T07:29:46;15.00;79.80
29663;DHT22;16578;53.266;7.920;2023-05-23T07:32:12;15.00;79.80
29663;DHT22;16578;53.266;7.920;2023-05-23T07:34:38;15.00;79.60
29663;DHT22;16578;53.266;7.920;2023-05-23T07:37:03;15.00;79.30
29663;DHT22;16578;53.266;7.920;2023-05-23T07:39:29;15.00;79.00
29663;DHT22;16578;53.266;7.920;2023-05-23T07:41:54;14.90;78.90
29663;DHT22;16578;53.266;7.920;2023-05-23T07:44:20;14.90;78.70
29663;DHT22;16578;53.266;7.920;2023-05-23T07:46:46;14.90;78.70
29663;DHT22;16578;53.266;7.920;2023-05-23T07:49:11;14.80;78.60
29663;DHT22;16578;53.266;7.920;2023-05-23T07:51:37;14.90;78.70
29663;DHT22;16578;53.266;7.920;2023-05-23T07:54:02;14.80;78.70
29663;DHT22;16578;53.266;7.920;2023-05-23T07:56:28;14.90;78.70
29663;DHT22;16578;53.266;7.920;2023-05-23T07:58:53;14.80;78.60
29663;DHT22;16578;53.266;7.920;2023-05-23T08:01:19;14.90;78.50
29663;DHT22;16578;53.266;7.920;2023-05-23T08:03:46;14.80;78.50
29663;DHT22;16578;53.266;7.920;2023-05-23T08:06:11;14.80;78.40
29663;DHT22;16578;53.266;7.920;2023-05-23T08:08:37;14.80;78.30
29663;DHT22;16578;53.266;7.920;2023-05-23T08:11:03;14.90;78.20
29663;DHT22;16578;53.266;7.920;2023-05-23T08:13:29;14.80;78.20
29663;DHT22;16578;53.266;7.920;2023-05-23T08:15:55;14.90;78.20
29663;DHT22;16578;53.266;7.920;2023-05-23T08:18:20;14.90;77.80
29663;DHT22;16578;53.266;7.920;2023-05-23T08:20:47;14.90;77.30
29663;DHT22;16578;53.266;7.920;2023-05-23T08:23:13;14.90;77.40
29663;DHT22;16578;53.266;7.920;2023-05-23T08:25:38;14.90;77.20
29663;DHT22;16578;53.266;7.920;2023-05-23T08:28:04;14.90;77.10
29663;DHT22;16578;53.266;7.920;2023-05-23T08:30:30;15.00;76.90
29663;DHT22;16578;53.266;7.920;2023-05-23T08:32:57;15.00;76.80
29663;DHT22;16578;53.266;7.920;2023-05-23T08:35:23;15.00;76.40
29663;DHT22;16578;53.266;7.920;2023-05-23T08:37:49;15.10;76.30
29663;DHT22;16578;53.266;7.920;2023-05-23T08:40:19;15.10;76.00
29663;DHT22;16578;53.266;7.920;2023-05-23T08:42:49;15.20;75.30
29663;DHT22;16578;53.266;7.920;2023-05-23T08:45:15;15.20;75.00
29663;DHT22;16578;53.266;7.920;2023-05-23T08:47:45;15.20;75.70
29663;DHT22;16578;53.266;7.920;2023-05-23T08:50:12;15.20;74.40
29663;DHT22;16578;53.266;7.920;2023-05-23T08:52:57;15.30;74.00
29663;DHT22;16578;53.266;7.920;2023-05-23T08:55:24;15.30;73.20
29663;DHT22;16578;53.266;7.920;2023-05-23T08:57:54;15.30;73.80
29663;DHT22;16578;53.266;7.920;2023-05-23T09:00:20;15.30;73.50
29663;DHT22;16578;53.266;7.920;2023-05-23T09:02:47;15.40;73.70
29663;DHT22;16578;53.266;7.920;2023-05-23T09:05:13;15.40;72.90
29663;DHT22;16578;53.266;7.920;2023-05-23T09:07:39;15.50;73.70
29663;DHT22;16578;53.266;7.920;2023-05-23T09:10:09;15.50;72.50
29663;DHT22;16578;53.266;7.920;2023-05-23T09:12:35;15.60;71.90
29663;DHT22;16578;53.266;7.920;2023-05-23T09:15:05;15.60;71.90
29663;DHT22;16578;53.266;7.920;2023-05-23T09:17:32;15.70;71.80
29663;DHT22;16578;53.266;7.920;2023-05-23T09:19:58;15.70;71.50
29663;DHT22;16578;53.266;7.920;2023-05-23T09:22:25;15.80;71.30
29663;DHT22;16578;53.266;7.920;2023-05-23T09:24:54;15.90;70.70
29663;DHT22;16578;53.266;7.920;2023-05-23T09:27:20;16.00;70.70
29663;DHT22;16578;53.266;7.920;2023-05-23T09:29:47;16.10;70.00
29663;DHT22;16578;53.266;7.920;2023-05-23T09:32:14;16.10;70.00
29663;DHT22;16578;53.266;7.920;2023-05-23T09:35:04;16.10;69.20
29663;DHT22;16578;53.266;7.920;2023-05-23T09:37:37;16.20;68.70
29663;DHT22;16578;53.266;7.920;2023-05-23T09:40:11;16.20;69.00
29663;DHT22;16578;53.266;7.920;2023-05-23T09:42:45;16.30;69.10
29663;DHT22;16578;53.266;7.920;2023-05-23T09:45:11;16.30;68.70
29663;DHT22;16578;53.266;7.920;2023-05-23T09:47:37;16.30;68.60
29663;DHT22;16578;53.266;7.920;2023-05-23T09:50:03;16.40;68.50
29663;DHT22;16578;53.266;7.920;2023-05-23T09:52:36;16.40;68.10
29663;DHT22;16578;53.266;7.920;2023-05-23T09:55:02;16.50;67.90
29663;DHT22;16578;53.266;7.920;2023-05-23T09:57:29;16.50;67.60
29663;DHT22;16578;53.266;7.920;2023-05-23T09:59:58;16.60;67.80
29663;DHT22;16578;53.266;7.920;2023-05-23T10:03:03;16.60;67.40
29663;DHT22;16578;53.266;7.920;2023-05-23T10:05:39;16.60;66.80
29663;DHT22;16578;53.266;7.920;2023-05-23T10:08:28;16.60;67.60
29663;DHT22;16578;53.266;7.920;2023-05-23T10:13:23;16.70;67.00
29663;DHT22;16578;53.266;7.920;2023-05-23T10:15:58;16.80;66.40
29663;DHT22;16578;53.266;7.920;2023-05-23T10:18:34;16.80;65.80
29663;DHT22;16578;53.266;7.920;2023-05-23T10:21:07;16.80;65.40
29663;DHT22;16578;53.266;7.920;2023-05-23T10:23:34;16.80;65.80
29663;DHT22;16578;53.266;7.920;2023-05-23T10:26:02;16.90;66.00
29663;DHT22;16578;53.266;7.920;2023-05-23T10:28:28;16.90;66.20
29663;DHT22;16578;53.266;7.920;2023-05-23T10:30:54;17.00;65.70
29663;DHT22;16578;53.266;7.920;2023-05-23T10:33:20;17.00;65.10
29663;DHT22;16578;53.266;7.920;2023-05-23T10:35:49;17.10;64.40
29663;DHT22;16578;53.266;7.920;2023-05-23T10:38:41;17.10;64.10
29663;DHT22;16578;53.266;7.920;2023-05-23T10:41:37;17.10;63.30
29663;DHT22;16578;53.266;7.920;2023-05-23T10:44:10;17.10;63.50
29663;DHT22;16578;53.266;7.920;2023-05-23T10:46:56;17.10;63.50
29663;DHT22;16578;53.266;7.920;2023-05-23T10:49:43;17.10;63.20
29663;DHT22;16578;53.266;7.920;2023-05-23T10:52:11;17.10;63.00
29663;DHT22;16578;53.266;7.920;2023-05-23T10:54:46;17.00;63.20
29663;DHT22;16578;53.266;7.920;2023-05-23T10:57:15;17.10;63.10
29663;DHT22;16578;53.266;7.920;2023-05-23T10:59:41;17.00;63.10
29663;DHT22;16578;53.266;7.920;2023-05-23T11:02:15;17.00;63.00
29663;DHT22;16578;53.266;7.920;2023-05-23T11:04:41;17.00;62.50
29663;DHT22;16578;53.266;7.920;2023-05-23T11:07:27;17.00;62.90
29663;DHT22;16578;53.266;7.920;2023-05-23T11:10:09;17.00;62.20
29663;DHT22;16578;53.266;7.920;2023-05-23T11:12:43;17.00;62.40
29663;DHT22;16578;53.266;7.920;2023-05-23T11:15:19;17.00;62.40
29663;DHT22;16578;53.266;7.920;2023-05-23T11:17:50;17.10;62.20
29663;DHT22;16578;53.266;7.920;2023-05-23T11:20:18;17.10;62.40
29663;DHT22;16578;53.266;7.920;2023-05-23T11:23:02;17.10;62.50
29663;DHT22;16578;53.266;7.920;2023-05-23T11:25:47;17.20;61.70
29663;DHT22;16578;53.266;7.920;2023-05-23T11:28:13;17.20;61.60
29663;DHT22;16578;53.266;7.920;2023-05-23T11:30:39;17.20;62.40
29663;DHT22;16578;53.266;7.920;2023-05-23T11:33:12;17.30;62.50
29663;DHT22;16578;53.266;7.920;2023-05-23T11:35:42;17.30;62.60
29663;DHT22;16578;53.266;7.920;2023-05-23T11:38:09;17.40;62.30
29663;DHT22;16578;53.266;7.920;2023-05-23T11:40:39;17.40;62.30
29663;DHT22;16578;53.266;7.920;2023-05-23T11:43:07;17.50;61.80
29663;DHT22;16578;53.266;7.920;2023-05-23T11:45:34;17.50;61.30
29663;DHT22;16578;53.266;7.920;2023-05-23T11:48:10;17.50;61.20
29663;DHT22;16578;53.266;7.920;2023-05-23T11:50:51;17.50;61.00
29663;DHT22;16578;53.266;7.920;2023-05-23T11:53:19;17.60;60.80
29663;DHT22;16578;53.266;7.920;2023-05-23T11:56:02;17.60;60.90
29663;DHT22;16578;53.266;7.920;2023-05-23T11:58:28;17.60;59.90
29663;DHT22;16578;53.266;7.920;2023-05-23T12:00:59;17.60;60.50
29663;DHT22;16578;53.266;7.920;2023-05-23T12:03:25;17.60;59.80
29663;DHT22;16578;53.266;7.920;2023-05-23T12:05:50;17.60;60.10
29663;DHT22;16578;53.266;7.920;2023-05-23T12:08:16;17.60;60.00
29663;DHT22;16578;53.266;7.920;2023-05-23T12:10:58;17.70;59.80
29663;DHT22;16578;53.266;7.920;2023-05-23T12:13:26;17.80;59.20
29663;DHT22;16578;53.266;7.920;2023-05-23T12:15:54;17.70;59.50
29663;DHT22;16578;53.266;7.920;2023-05-23T12:18:20;17.70;59.30
29663;DHT22;16578;53.266;7.920;2023-05-23T12:20:48;17.70;59.20
29663;DHT22;16578;53.266;7.920;2023-05-23T12:23:21;17.70;59.10
29663;DHT22;16578;53.266;7.920;2023-05-23T12:25:54;17.70;58.90
29663;DHT22;16578;53.266;7.920;2023-05-23T12:28:32;17.60;58.30
29663;DHT22;16578;53.266;7.920;2023-05-23T12:30:58;17.60;58.60
29663;DHT22;16578;53.266;7.920;2023-05-23T12:33:24;17.50;59.00
29663;DHT22;16578;53.266;7.920;2023-05-23T12:35:49;17.50;59.20
29663;DHT22;16578;53.266;7.920;2023-05-23T12:38:15;17.50;58.90
29663;DHT22;16578;53.266;7.920;2023-05-23T12:40:42;17.50;58.90
29663;DHT22;16578;53.266;7.920;2023-05-23T12:43:08;17.50;58.90
29663;DHT22;16578;53.266;7.920;2023-05-23T12:45:35;17.50;59.30
29663;DHT22;16578;53.266;7.920;2023-05-23T12:48:07;17.50;58.50
29663;DHT22;16578;53.266;7.920;2023-05-23T12:50:33;17.50;58.50
29663;DHT22;16578;53.266;7.920;2023-05-23T12:52:59;17.40;58.60
29663;DHT22;16578;53.266;7.920;2023-05-23T12:55:24;17.40;58.40
29663;DHT22;16578;53.266;7.920;2023-05-23T12:57:50;17.40;59.10
29663;DHT22;16578;53.266;7.920;2023-05-23T13:00:16;17.40;59.40
29663;DHT22;16578;53.266;7.920;2023-05-23T13:02:42;17.50;59.30
29663;DHT22;16578;53.266;7.920;2023-05-23T13:05:07;17.50;59.30
29663;DHT22;16578;53.266;7.920;2023-05-23T13:07:33;17.50;58.90
29663;DHT22;16578;53.266;7.920;2023-05-23T13:10:00;17.50;58.80
29663;DHT22;16578;53.266;7.920;2023-05-23T13:12:25;17.60;59.00
29663;DHT22;16578;53.266;7.920;2023-05-23T13:14:51;17.60;59.00
29663;DHT22;16578;53.266;7.920;2023-05-23T13:17:17;17.70;58.90
29663;DHT22;16578;53.266;7.920;2023-05-23T13:19:43;17.70;58.70
29663;DHT22;16578;53.266;7.920;2023-05-23T13:22:08;17.80;58.70
29663;DHT22;16578;53.266;7.920;2023-05-23T13:24:38;17.80;58.60
29663;DHT22;16578;53.266;7.920;2023-05-23T13:27:05;17.80;58.40
29663;DHT22;16578;53.266;7.920;2023-05-23T13:29:31;17.80;58.10
29663;DHT22;16578;53.266;7.920;2023-05-23T13:31:57;17.80;57.50
29663;DHT22;16578;53.266;7.920;2023-05-23T13:34:23;17.80;57.70
29663;DHT22;16578;53.266;7.920;2023-05-23T13:36:49;17.80;57.70
29663;DHT22;16578;53.266;7.920;2023-05-23T13:39:15;17.80;57.90
29663;DHT22;16578;53.266;7.920;2023-05-23T13:41:40;17.80;57.90
29663;DHT22;16578;53.266;7.920;2023-05-23T13:44:06;17.80;57.50
29663;DHT22;16578;53.266;7.920;2023-05-23T13:46:31;17.70;57.40
29663;DHT22;16578;53.266;7.920;2023-05-23T13:48:57;17.70;57.70
29663;DHT22;16578;53.266;7.920;2023-05-23T13:51:22;17.70;58.00
29663;DHT22;16578;53.266;7.920;2023-05-23T13:53:48;17.70;57.80
29663;DHT22;16578;53.266;7.920;2023-05-23T13:56:14;17.70;57.90
29663;DHT22;16578;53.266;7.920;2023-05-23T13:58:39;17.70;57.50
29663;DHT22;16578;53.266;7.920;2023-05-23T14:01:07;17.70;57.60
29663;DHT22;16578;53.266;7.920;2023-05-23T14:03:33;17.70;57.60
29663;DHT22;16578;53.266;7.920;2023-05-23T14:05:58;17.80;57.50
29663;DHT22;16578;53.266;7.920;2023-05-23T14:08:24;17.80;57.50
29663;DHT22;16578;53.266;7.920;2023-05-23T14:10:50;17.80;57.10
29663;DHT22;16578;53.266;7.920;2023-05-23T14:13:15;17.80;56.80
29663;DHT22;16578;53.266;7.920;2023-05-23T14:15:41;17.80;56.70
29663;DHT22;16578;53.266;7.920;2023-05-23T14:18:07;17.90;56.90
29663;DHT22;16578;53.266;7.920;2023-05-23T14:20:32;17.90;57.20
29663;DHT22;16578;53.266;7.920;2023-05-23T14:22:58;17.90;56.90
29663;DHT22;16578;53.266;7.920;2023-05-23T14:25:23;17.90;56.60
29663;DHT22;16578;53.266;7.920;2023-05-23T14:27:49;18.00;56.50
29663;DHT22;16578;53.266;7.920;2023-05-23T14:30:14;18.00;56.30
29663;DHT22;16578;53.266;7.920;2023-05-23T14:32:40;18.00;56.30
29663;DHT22;16578;53.266;7.920;2023-05-23T14:35:07;17.90;55.90
29663;DHT22;16578;53.266;7.920;2023-05-23T14:37:34;17.90;55.40
29663;DHT22;16578;53.266;7.920;2023-05-23T14:39:59;17.80;55.40
29663;DHT22;16578;53.266;7.920;2023-05-23T14:42:25;17.70;55.40
29663;DHT22;16578;53.266;7.920;2023-05-23T14:44:54;17.70;55.50
29663;DHT22;16578;53.266;7.920;2023-05-23T14:47:20;17.60;55.80
29663;DHT22;16578;53.266;7.920;2023-05-23T14:49:46;17.60;56.20
29663;DHT22;16578;53.266;7.920;2023-05-23T14:52:12;17.60;56.60
29663;DHT22;16578;53.266;7.920;2023-05-23T14:54:38;17.60;56.40
29663;DHT22;16578;53.266;7.920;2023-05-23T14:57:08;17.70;56.20
29663;DHT22;16578;53.266;7.920;2023-05-23T14:59:34;17.70;55.90
29663;DHT22;16578;53.266;7.920;2023-05-23T15:01:59;17.70;56.00
29663;DHT22;16578;53.266;7.920;2023-05-23T15:04:25;17.60;56.00
29663;DHT22;16578;53.266;7.920;2023-05-23T15:06:51;17.60;56.10
29663;DHT22;16578;53.266;7.920;2023-05-23T15:09:16;17.60;56.20
29663;DHT22;16578;53.266;7.920;2023-05-23T15:11:43;17.50;56.10
29663;DHT22;16578;53.266;7.920;2023-05-23T15:14:11;17.50;55.90
29663;DHT22;16578;53.266;7.920;2023-05-23T15:16:36;17.50;55.70
29663;DHT22;16578;53.266;7.920;2023-05-23T15:19:03;17.40;55.20
29663;DHT22;16578;53.266;7.920;2023-05-23T15:21:29;17.40;55.00
29663;DHT22;16578;53.266;7.920;2023-05-23T15:23:56;17.30;55.00
29663;DHT22;16578;53.266;7.920;2023-05-23T15:26:23;17.30;54.70
29663;DHT22;16578;53.266;7.920;2023-05-23T15:28:49;17.30;54.60
29663;DHT22;16578;53.266;7.920;2023-05-23T15:31:15;17.30;54.70
29663;DHT22;16578;53.266;7.920;2023-05-23T15:33:40;17.20;54.40
29663;DHT22;16578;53.266;7.920;2023-05-23T15:36:06;17.20;54.90